createdAt,value
2022-08-01T00:00:02.437Z,1007.21
2022-08-01T00:00:32.210Z,1007.21
2022-08-01T00:01:05.168Z,1007.21
2022-08-01T00:01:33.976Z,1007.31
2022-08-01T00:01:52.257Z,1007.31
2022-08-01T00:02:25.423Z,1007.31
2022-08-01T00:02:42.194Z,1007.21
2022-08-01T00:03:12.954Z,1007.21
2022-08-01T00:03:36.469Z,1007.21
2022-08-01T00:04:00.203Z,1007.21
2022-08-01T00:04:33.063Z,1007.21
2022-08-01T00:05:04.390Z,1007.21
2022-08-01T00:05:34.462Z,1007.21
2022-08-01T00:05:53.120Z,1007.21
2022-08-01T00:06:25.140Z,1007.21
2022-08-01T00:06:42.083Z,1007.21
2022-08-01T00:07:12.999Z,1007.21
2022-08-01T00:07:33.981Z,1007.42
2022-08-01T00:08:00.282Z,1007.42
2022-08-01T00:08:32.901Z,1007.42
2022-08-01T00:09:04.170Z,1007.31
2022-08-01T00:09:34.990Z,1007.31
2022-08-01T00:09:52.948Z,1007.31
2022-08-01T00:10:24.439Z,1007.31
2022-08-01T00:10:41.283Z,1007.21
2022-08-01T00:11:13.104Z,1007.21
2022-08-01T00:11:34.058Z,1007.31
2022-08-01T00:12:00.346Z,1007.31
2022-08-01T00:12:34.558Z,1007.31
2022-08-01T00:13:05.217Z,1007.21
2022-08-01T00:13:33.954Z,1007.21
2022-08-01T00:13:52.272Z,1007.21
2022-08-01T00:14:32.006Z,1007.21
2022-08-01T00:14:41.497Z,1007.21
2022-08-01T00:15:13.143Z,1007.21
2022-08-01T00:15:34.050Z,1007.31
2022-08-01T00:16:01.114Z,1007.31
2022-08-01T00:16:32.286Z,1007.31
2022-08-01T00:17:07.311Z,1007.21
2022-08-01T00:17:33.968Z,1007.42
2022-08-01T00:17:52.170Z,1007.42
2022-08-01T00:18:25.162Z,1007.42
2022-08-01T00:18:42.094Z,1007.31
2022-08-01T00:19:12.390Z,1007.31
2022-08-01T00:19:33.982Z,1007.52
2022-08-01T00:20:01.196Z,1007.52
2022-08-01T00:20:33.054Z,1007.52
2022-08-01T00:21:04.271Z,1007.11
2022-08-01T00:21:34.793Z,1007.21
2022-08-01T00:21:52.962Z,1007.21
2022-08-01T00:22:25.129Z,1007.21
2022-08-01T00:22:42.113Z,1007.11
2022-08-01T00:23:12.304Z,1007.11
2022-08-01T00:23:33.974Z,1007.31
2022-08-01T00:24:00.991Z,1007.31
2022-08-01T00:24:32.224Z,1007.31
2022-08-01T00:25:06.081Z,1007.11
2022-08-01T00:25:34.700Z,1007.11
2022-08-01T00:25:52.468Z,1007.11
2022-08-01T00:26:24.336Z,1007.11
2022-08-01T00:26:41.518Z,1007.11
2022-08-01T00:27:12.991Z,1007.11
2022-08-01T00:27:34.583Z,1007.21
2022-08-01T00:28:00.278Z,1007.21
2022-08-01T00:28:32.333Z,1007.21
2022-08-01T00:29:04.208Z,1007.21
2022-08-01T00:30:09.951Z,1007.01
2022-08-01T00:30:25.416Z,1007.01
2022-08-01T00:30:42.007Z,1007.11
2022-08-01T00:31:12.378Z,1007.11
2022-08-01T00:31:35.256Z,1007.01
2022-08-01T00:32:00.251Z,1007.01
2022-08-01T00:32:32.217Z,1007.01
2022-08-01T00:33:04.362Z,1006.94
2022-08-01T00:33:34.164Z,1007.31
2022-08-01T00:33:52.230Z,1007.31
2022-08-01T00:34:24.993Z,1007.31
2022-08-01T00:34:56.346Z,1007.11
2022-08-01T00:35:29.775Z,1007.11
2022-08-01T00:36:00.328Z,1007.11
2022-08-01T00:36:32.870Z,1007.11
2022-08-01T00:37:04.171Z,1007.11
2022-08-01T00:37:36.112Z,1007.11
2022-08-01T00:38:08.328Z,1007.11
2022-08-01T00:38:34.089Z,1007.21
2022-08-01T00:38:57.007Z,1007.21
2022-08-01T00:39:29.229Z,1007.21
2022-08-01T00:40:01.323Z,1006.94
2022-08-01T00:40:33.379Z,1006.94
2022-08-01T00:41:04.187Z,1007.01
2022-08-01T00:41:33.970Z,1007.11
2022-08-01T00:41:59.482Z,1007.11
2022-08-01T00:42:38.077Z,1007.11
2022-08-01T00:42:56.245Z,1007.11
2022-08-01T00:43:28.237Z,1007.11
2022-08-01T00:44:00.322Z,1006.94
2022-08-01T00:44:34.767Z,1006.94
2022-08-01T00:45:05.226Z,1007.11
2022-08-01T00:45:34.954Z,1007.01
2022-08-01T00:45:52.419Z,1007.01
2022-08-01T00:46:24.178Z,1007.01
2022-08-01T00:46:56.179Z,1007.11
2022-08-01T00:47:28.310Z,1007.11
2022-08-01T00:48:01.588Z,1007.11
2022-08-01T00:48:32.169Z,1007.11
2022-08-01T00:49:04.216Z,1007.21
2022-08-01T00:49:34.069Z,1007.21
2022-08-01T00:49:52.245Z,1007.21
2022-08-01T00:50:25.111Z,1007.21
2022-08-01T00:50:56.154Z,1007.21
2022-08-01T00:51:28.944Z,1007.21
2022-08-01T00:52:00.170Z,1006.94
2022-08-01T00:52:33.647Z,1006.94
2022-08-01T00:53:05.094Z,1007.21
2022-08-01T00:53:51.353Z,1006.94
2022-08-01T00:54:08.147Z,1006.94
2022-08-01T00:54:33.988Z,1006.94
2022-08-01T00:54:56.841Z,1006.94
2022-08-01T00:55:28.466Z,1006.94
2022-08-01T00:56:00.194Z,1006.94
2022-08-01T00:56:32.219Z,1006.94
2022-08-01T00:57:04.248Z,1007.31
2022-08-01T00:58:02.525Z,1007.01
2022-08-01T00:58:08.177Z,1007.01
2022-08-01T00:58:35.439Z,1007.01
2022-08-01T00:58:57.832Z,1007.01
2022-08-01T00:59:28.916Z,1007.01
2022-08-01T01:00:00.533Z,1007.11
2022-08-01T01:00:52.093Z,1007.11
2022-08-01T01:01:04.186Z,1006.94
2022-08-01T01:01:39.661Z,1007.11
2022-08-01T01:01:52.326Z,1007.11
2022-08-01T01:02:24.282Z,1007.11
2022-08-01T01:02:41.330Z,1007.01
2022-08-01T01:03:12.858Z,1007.01
2022-08-01T01:03:57.643Z,1007.01
2022-08-01T01:04:01.178Z,1007.01
2022-08-01T01:04:32.260Z,1007.01
2022-08-01T01:05:04.424Z,1007.11
2022-08-01T01:05:37.437Z,1007.11
2022-08-01T01:05:52.265Z,1007.11
2022-08-01T01:06:25.010Z,1007.11
2022-08-01T01:06:42.755Z,1007.01
2022-08-01T01:07:12.317Z,1007.01
2022-08-01T01:07:34.049Z,1007.11
2022-08-01T01:08:00.138Z,1007.11
2022-08-01T01:08:33.091Z,1007.11
2022-08-01T01:09:04.272Z,1007.11
2022-08-01T01:09:34.096Z,1007.21
2022-08-01T01:09:52.941Z,1007.21
2022-08-01T01:10:25.136Z,1007.21
2022-08-01T01:10:57.949Z,1006.94
2022-08-01T01:11:30.381Z,1006.94
2022-08-01T01:12:00.252Z,1007.21
2022-08-01T01:12:35.915Z,1007.21
2022-08-01T01:13:05.022Z,1007.11
2022-08-01T01:13:36.278Z,1007.01
2022-08-01T01:14:08.250Z,1007.01
2022-08-01T01:14:35.156Z,1007.11
2022-08-01T01:14:56.131Z,1007.11
2022-08-01T01:15:28.397Z,1007.11
2022-08-01T01:16:02.624Z,1007.21
2022-08-01T01:16:34.422Z,1007.21
2022-08-01T01:17:04.880Z,1007.21
2022-08-01T01:17:42.034Z,1007.01
2022-08-01T01:18:08.955Z,1007.01
2022-08-01T01:18:34.889Z,1007.21
2022-08-01T01:18:57.078Z,1007.21
2022-08-01T01:19:28.874Z,1007.21
2022-08-01T01:20:00.343Z,1007.11
2022-08-01T01:20:32.945Z,1007.11
2022-08-01T01:21:04.245Z,1007.11
2022-08-01T01:21:33.991Z,1007.21
2022-08-01T01:21:52.958Z,1007.21
2022-08-01T01:22:24.197Z,1007.21
2022-08-01T01:22:42.192Z,1007.21
2022-08-01T01:23:12.862Z,1007.21
2022-08-01T01:23:36.190Z,1007.01
2022-08-01T01:24:00.131Z,1007.01
2022-08-01T01:24:33.221Z,1007.01
2022-08-01T01:25:04.401Z,1006.94
2022-08-01T01:25:34.115Z,1007.01
2022-08-01T01:25:52.296Z,1007.01
2022-08-01T01:26:25.046Z,1007.01
2022-08-01T01:26:56.224Z,1007.11
2022-08-01T01:27:29.964Z,1007.11
2022-08-01T01:28:00.270Z,1007.01
2022-08-01T01:28:32.218Z,1007.01
2022-08-01T01:29:04.116Z,1007.21
2022-08-01T01:29:59.822Z,1007.11
2022-08-01T01:30:08.399Z,1007.11
2022-08-01T01:30:34.067Z,1007.01
2022-08-01T01:30:57.116Z,1007.01
2022-08-01T01:31:28.172Z,1007.01
2022-08-01T01:32:00.315Z,1007.11
2022-08-01T01:32:32.242Z,1007.11
2022-08-01T01:33:04.208Z,1007.01
2022-08-01T01:33:34.380Z,1007.21
2022-08-01T01:33:52.191Z,1007.21
2022-08-01T01:34:24.822Z,1007.21
2022-08-01T01:34:41.959Z,1007.21
2022-08-01T01:35:12.249Z,1007.21
2022-08-01T01:35:34.091Z,1007.01
2022-08-01T01:36:02.180Z,1007.01
2022-08-01T01:36:33.011Z,1007.01
2022-08-01T01:37:21.156Z,1007.01
2022-08-01T01:37:52.112Z,1007.21
2022-08-01T01:38:24.163Z,1007.21
2022-08-01T01:38:42.085Z,1007.31
2022-08-01T01:39:12.275Z,1007.31
2022-08-01T01:39:35.192Z,1007.11
2022-08-01T01:40:01.901Z,1007.11
2022-08-01T01:40:32.102Z,1007.11
2022-08-01T01:41:05.175Z,1007.11
2022-08-01T01:41:34.102Z,1007.21
2022-08-01T01:41:52.227Z,1007.21
2022-08-01T01:42:24.920Z,1007.21
2022-08-01T01:42:42.180Z,1007.21
2022-08-01T01:43:13.181Z,1007.21
2022-08-01T01:43:34.005Z,1007.21
2022-08-01T01:44:00.977Z,1007.21
2022-08-01T01:44:32.159Z,1007.21
2022-08-01T01:45:05.198Z,1007.01
2022-08-01T01:45:34.068Z,1007.31
2022-08-01T01:45:52.913Z,1007.31
2022-08-01T01:46:24.846Z,1007.31
2022-08-01T01:46:42.228Z,1007.11
2022-08-01T01:47:12.122Z,1007.11
2022-08-01T01:47:34.218Z,1007.11
2022-08-01T01:48:00.292Z,1007.11
2022-08-01T01:48:32.817Z,1007.11
2022-08-01T01:49:04.246Z,1007.31
2022-08-01T01:49:36.156Z,1007.11
2022-08-01T01:50:08.363Z,1007.11
2022-08-01T01:50:33.972Z,1007.11
2022-08-01T01:50:57.165Z,1007.11
2022-08-01T01:51:29.153Z,1007.11
2022-08-01T01:52:03.882Z,1007.21
2022-08-01T01:52:33.240Z,1007.21
2022-08-01T01:53:04.401Z,1007.11
2022-08-01T01:53:34.085Z,1007.11
2022-08-01T01:53:52.103Z,1007.11
2022-08-01T01:54:24.950Z,1007.11
2022-08-01T01:54:42.330Z,1007.11
2022-08-01T01:55:13.327Z,1007.11
2022-08-01T01:55:34.065Z,1007.11
2022-08-01T01:56:02.126Z,1007.11
2022-08-01T01:56:35.291Z,1007.11
2022-08-01T01:57:06.047Z,1007.11
2022-08-01T01:57:34.089Z,1007.01
2022-08-01T01:57:53.590Z,1007.01
2022-08-01T01:58:24.254Z,1007.01
2022-08-01T01:58:43.239Z,1007.21
2022-08-01T01:59:12.130Z,1007.21
2022-08-01T01:59:35.650Z,1007.21
2022-08-01T02:00:01.586Z,1007.21
2022-08-01T02:00:33.171Z,1007.21
2022-08-01T02:01:04.094Z,1007.11
2022-08-01T02:02:05.017Z,1006.84
2022-08-01T02:02:09.321Z,1006.84
2022-08-01T02:02:35.614Z,1007.01
2022-08-01T02:02:56.271Z,1007.01
2022-08-01T02:03:29.052Z,1007.01
2022-08-01T02:04:00.186Z,1006.94
2022-08-01T02:04:32.787Z,1006.94
2022-08-01T02:05:04.305Z,1007.11
2022-08-01T02:05:35.161Z,1006.94
2022-08-01T02:06:09.120Z,1006.94
2022-08-01T02:06:34.016Z,1006.94
2022-08-01T02:06:57.749Z,1006.94
2022-08-01T02:07:28.222Z,1006.94
2022-08-01T02:08:02.941Z,1007.11
2022-08-01T02:08:33.388Z,1007.11
2022-08-01T02:09:04.264Z,1007.11
2022-08-01T02:09:34.884Z,1007.21
2022-08-01T02:09:52.088Z,1007.21
2022-08-01T02:10:28.730Z,1007.21
2022-08-01T02:10:41.272Z,1007.01
2022-08-01T02:11:12.938Z,1007.01
2022-08-01T02:11:34.816Z,1006.94
2022-08-01T02:12:08.274Z,1006.94
2022-08-01T02:12:34.944Z,1007.21
2022-08-01T02:13:04.083Z,1007.21
2022-08-01T02:13:35.017Z,1006.94
2022-08-01T02:13:52.183Z,1006.94
2022-08-01T02:14:26.369Z,1006.94
2022-08-01T02:14:56.093Z,1007.11
2022-08-01T02:15:28.353Z,1007.11
2022-08-01T02:16:00.679Z,1007.01
2022-08-01T02:16:32.391Z,1007.01
2022-08-01T02:17:04.086Z,1007.01
2022-08-01T02:17:33.999Z,1006.94
2022-08-01T02:17:52.152Z,1006.94
2022-08-01T02:18:24.696Z,1006.94
2022-08-01T02:18:41.814Z,1007.01
2022-08-01T02:19:12.375Z,1007.01
2022-08-01T02:19:37.925Z,1007.01
2022-08-01T02:20:00.076Z,1007.01
2022-08-01T02:20:33.064Z,1007.01
2022-08-01T02:21:04.201Z,1006.94
2022-08-01T02:21:34.945Z,1006.94
2022-08-01T02:21:52.844Z,1006.94
2022-08-01T02:22:24.109Z,1006.94
2022-08-01T02:22:41.210Z,1007.11
2022-08-01T02:23:14.121Z,1007.11
2022-08-01T02:23:36.780Z,1007.11
2022-08-01T02:24:05.709Z,1007.11
2022-08-01T02:24:32.125Z,1007.11
2022-08-01T02:25:05.035Z,1006.94
2022-08-01T02:25:36.005Z,1006.94
2022-08-01T02:26:11.667Z,1006.94
2022-08-01T02:26:34.371Z,1006.94
2022-08-01T02:26:56.929Z,1006.94
2022-08-01T02:27:28.930Z,1006.94
2022-08-01T02:28:00.232Z,1007.11
2022-08-01T02:28:33.782Z,1007.11
2022-08-01T02:29:05.180Z,1006.94
2022-08-01T02:29:33.979Z,1006.94
2022-08-01T02:29:53.560Z,1006.94
2022-08-01T02:30:24.482Z,1006.94
2022-08-01T02:30:41.376Z,1007.01
2022-08-01T02:31:12.775Z,1007.01
2022-08-01T02:31:35.110Z,1006.94
2022-08-01T02:32:00.071Z,1006.94
2022-08-01T02:32:32.727Z,1006.94
2022-08-01T02:33:05.285Z,1006.84
2022-08-01T02:33:34.918Z,1006.84
2022-08-01T02:33:52.083Z,1006.84
2022-08-01T02:34:24.093Z,1006.84
2022-08-01T02:34:41.209Z,1007.01
2022-08-01T02:35:13.002Z,1007.01
2022-08-01T02:35:33.980Z,1006.84
2022-08-01T02:36:30.708Z,1006.84
2022-08-01T02:36:35.574Z,1006.84
2022-08-01T02:37:04.064Z,1006.84
2022-08-01T02:37:35.645Z,1006.94
2022-08-01T02:37:52.189Z,1006.94
2022-08-01T02:38:24.081Z,1006.94
2022-08-01T02:38:42.861Z,1006.94
2022-08-01T02:39:12.082Z,1006.94
2022-08-01T02:39:34.184Z,1007.01
2022-08-01T02:40:01.197Z,1007.01
2022-08-01T02:40:33.008Z,1007.01
2022-08-01T02:41:04.097Z,1006.94
2022-08-01T02:41:33.968Z,1006.94
2022-08-01T02:41:53.136Z,1006.94
2022-08-01T02:42:25.872Z,1006.94
2022-08-01T02:42:56.192Z,1007.01
2022-08-01T02:43:28.112Z,1007.01
2022-08-01T02:44:01.799Z,1007.01
2022-08-01T02:44:32.153Z,1007.01
2022-08-01T02:45:04.333Z,1006.94
2022-08-01T02:45:35.696Z,1006.84
2022-08-01T02:46:08.076Z,1006.84
2022-08-01T02:46:33.989Z,1006.74
2022-08-01T02:46:56.196Z,1006.74
2022-08-01T02:47:28.800Z,1006.74
2022-08-01T02:48:01.483Z,1006.84
2022-08-01T02:48:33.716Z,1006.84
2022-08-01T02:49:04.156Z,1006.94
2022-08-01T02:49:34.938Z,1006.84
2022-08-01T02:49:53.287Z,1006.84
2022-08-01T02:50:24.205Z,1006.84
2022-08-01T02:50:41.990Z,1006.84
2022-08-01T02:51:12.111Z,1006.84
2022-08-01T02:51:34.650Z,1006.94
2022-08-01T02:52:00.815Z,1006.94
2022-08-01T02:52:32.056Z,1006.94
2022-08-01T02:53:04.096Z,1007.01
2022-08-01T02:53:39.079Z,1007.11
2022-08-01T02:53:52.255Z,1007.11
2022-08-01T02:54:24.820Z,1007.11
2022-08-01T02:54:43.307Z,1006.94
2022-08-01T02:55:13.093Z,1006.94
2022-08-01T02:55:34.063Z,1006.94
2022-08-01T02:56:01.229Z,1006.94
2022-08-01T02:56:32.802Z,1006.94
2022-08-01T02:57:05.141Z,1006.84
2022-08-01T02:57:51.712Z,1006.94
2022-08-01T02:58:08.160Z,1006.94
2022-08-01T02:58:34.359Z,1006.84
2022-08-01T02:58:56.692Z,1006.84
2022-08-01T02:59:28.173Z,1006.84
2022-08-01T03:00:01.573Z,1006.84
2022-08-01T03:00:32.807Z,1006.84
2022-08-01T03:01:06.401Z,1006.84
2022-08-01T03:01:35.078Z,1006.94
2022-08-01T03:01:53.031Z,1006.94
2022-08-01T03:02:24.157Z,1006.94
2022-08-01T03:02:41.213Z,1006.84
2022-08-01T03:03:12.882Z,1006.84
2022-08-01T03:03:33.973Z,1006.74
2022-08-01T03:04:00.232Z,1006.74
2022-08-01T03:04:37.004Z,1006.74
2022-08-01T03:05:04.225Z,1006.74
2022-08-01T03:05:35.180Z,1006.84
2022-08-01T03:05:54.189Z,1006.84
2022-08-01T03:06:25.025Z,1006.84
2022-08-01T03:06:45.056Z,1006.74
2022-08-01T03:07:12.108Z,1006.74
2022-08-01T03:07:34.719Z,1006.74
2022-08-01T03:08:02.777Z,1006.74
2022-08-01T03:08:32.184Z,1006.74
2022-08-01T03:09:04.050Z,1006.94
2022-08-01T03:09:34.030Z,1006.74
2022-08-01T03:09:52.074Z,1006.74
2022-08-01T03:10:35.234Z,1006.94
2022-08-01T03:10:57.196Z,1006.94
2022-08-01T03:11:28.044Z,1006.94
2022-08-01T03:12:00.109Z,1006.94
2022-08-01T03:12:32.131Z,1006.94
2022-08-01T03:13:04.730Z,1006.94
2022-08-01T03:13:37.006Z,1007.01
2022-08-01T03:14:08.133Z,1007.01
2022-08-01T03:14:33.960Z,1006.74
2022-08-01T03:14:57.563Z,1006.74
2022-08-01T03:15:28.310Z,1006.74
2022-08-01T03:16:00.803Z,1006.74
2022-08-01T03:16:32.057Z,1006.74
2022-08-01T03:17:04.153Z,1006.84
2022-08-01T03:17:34.141Z,1007.01
2022-08-01T03:17:52.055Z,1007.01
2022-08-01T03:18:25.922Z,1007.01
2022-08-01T03:18:57.122Z,1007.01
2022-08-01T03:19:28.259Z,1007.01
2022-08-01T03:20:00.230Z,1006.94
2022-08-01T03:20:32.060Z,1006.94
2022-08-01T03:21:04.051Z,1006.94
2022-08-01T03:21:34.022Z,1006.94
2022-08-01T03:21:52.658Z,1006.94
2022-08-01T03:22:24.264Z,1006.94
2022-08-01T03:22:41.369Z,1006.84
2022-08-01T03:23:12.861Z,1006.84
2022-08-01T03:23:38.233Z,1006.84
2022-08-01T03:24:00.208Z,1006.84
2022-08-01T03:24:32.667Z,1006.84
2022-08-01T03:25:04.151Z,1006.94
2022-08-01T03:25:36.346Z,1006.94
2022-08-01T03:26:08.135Z,1006.94
2022-08-01T03:26:34.071Z,1007.11
2022-08-01T03:26:56.087Z,1007.11
2022-08-01T03:27:28.050Z,1007.11
2022-08-01T03:28:00.774Z,1006.94
2022-08-01T03:28:33.163Z,1006.94
2022-08-01T03:29:04.817Z,1007.01
2022-08-01T03:29:34.196Z,1007.21
2022-08-01T03:29:52.074Z,1007.21
2022-08-01T03:30:24.317Z,1007.21
2022-08-01T03:30:41.296Z,1006.94
2022-08-01T03:31:12.668Z,1006.94
2022-08-01T03:31:36.288Z,1006.94
2022-08-01T03:32:03.929Z,1006.94
2022-08-01T03:32:36.443Z,1006.94
2022-08-01T03:33:04.180Z,1006.94
2022-08-01T03:33:34.086Z,1006.84
2022-08-01T03:33:52.486Z,1006.84
2022-08-01T03:34:24.119Z,1006.84
2022-08-01T03:34:42.052Z,1006.84
2022-08-01T03:35:12.380Z,1006.84
2022-08-01T03:35:33.990Z,1006.84
2022-08-01T03:36:00.741Z,1006.84
2022-08-01T03:36:32.152Z,1006.84
2022-08-01T03:37:04.058Z,1006.74
2022-08-01T03:37:35.114Z,1007.01
2022-08-01T03:38:15.483Z,1007.01
2022-08-01T03:38:24.766Z,1007.01
2022-08-01T03:38:42.147Z,1006.94
2022-08-01T03:39:12.046Z,1006.94
2022-08-01T03:39:35.076Z,1006.94
2022-08-01T03:40:00.232Z,1006.94
2022-08-01T03:40:32.740Z,1006.94
2022-08-01T03:41:04.055Z,1006.74
2022-08-01T03:41:36.091Z,1006.84
2022-08-01T03:42:08.499Z,1006.84
2022-08-01T03:42:33.984Z,1006.84
2022-08-01T03:42:56.750Z,1006.84
2022-08-01T03:43:28.134Z,1006.84
2022-08-01T03:44:01.409Z,1006.94
2022-08-01T03:44:34.654Z,1006.94
2022-08-01T03:45:04.992Z,1007.21
2022-08-01T03:45:34.008Z,1006.94
2022-08-01T03:45:52.204Z,1006.94
2022-08-01T03:46:25.201Z,1006.94
2022-08-01T03:46:42.822Z,1007.11
2022-08-01T03:47:12.662Z,1007.11
2022-08-01T03:47:34.045Z,1006.94
2022-08-01T03:48:01.213Z,1006.94
2022-08-01T03:48:33.128Z,1006.94
2022-08-01T03:49:04.227Z,1006.94
2022-08-01T03:49:34.349Z,1007.01
2022-08-01T03:50:01.824Z,1007.01
2022-08-01T03:50:24.103Z,1007.01
2022-08-01T03:50:42.319Z,1007.11
2022-08-01T03:51:12.142Z,1007.11
2022-08-01T03:51:34.030Z,1007.11
2022-08-01T03:52:00.832Z,1007.11
2022-08-01T03:52:33.995Z,1007.11
2022-08-01T03:53:04.068Z,1006.84
2022-08-01T03:53:34.608Z,1006.94
2022-08-01T03:53:52.515Z,1006.94
2022-08-01T03:54:24.037Z,1006.94
2022-08-01T03:54:58.061Z,1006.94
2022-08-01T03:55:28.896Z,1006.94
2022-08-01T03:56:01.727Z,1007.11
2022-08-01T03:56:32.009Z,1007.11
2022-08-01T03:57:04.883Z,1006.84
2022-08-01T03:57:37.132Z,1006.94
2022-08-01T03:58:09.936Z,1006.94
2022-08-01T03:58:34.109Z,1006.94
2022-08-01T03:58:56.992Z,1006.94
2022-08-01T03:59:28.721Z,1006.94
2022-08-01T04:00:00.419Z,1007.01
2022-08-01T04:00:35.302Z,1007.11
2022-08-01T04:01:05.180Z,1007.11
2022-08-01T04:01:34.041Z,1007.01
2022-08-01T04:02:08.838Z,1007.01
2022-08-01T04:02:34.116Z,1006.94
2022-08-01T04:02:56.080Z,1006.94
2022-08-01T04:03:28.033Z,1006.94
2022-08-01T04:04:00.212Z,1006.94
2022-08-01T04:04:32.132Z,1006.94
2022-08-01T04:05:04.151Z,1006.84
2022-08-01T04:05:35.352Z,1007.01
2022-08-01T04:06:07.550Z,1007.01
2022-08-01T04:06:24.685Z,1007.01
2022-08-01T04:06:43.851Z,1007.11
2022-08-01T04:07:12.026Z,1007.11
2022-08-01T04:07:35.493Z,1006.84
2022-08-01T04:08:00.081Z,1006.84
2022-08-01T04:08:32.181Z,1006.84
2022-08-01T04:09:04.042Z,1006.94
2022-08-01T04:09:34.052Z,1007.11
2022-08-01T04:09:52.014Z,1007.11
2022-08-01T04:10:24.875Z,1007.11
2022-08-01T04:10:42.212Z,1007.01
2022-08-01T04:11:12.075Z,1007.01
2022-08-01T04:11:34.093Z,1007.01
2022-08-01T04:12:01.538Z,1007.01
2022-08-01T04:12:33.703Z,1007.01
2022-08-01T04:13:04.086Z,1007.01
2022-08-01T04:13:37.019Z,1007.21
2022-08-01T04:13:52.790Z,1007.21
2022-08-01T04:14:25.125Z,1007.21
2022-08-01T04:14:43.087Z,1006.94
2022-08-01T04:15:12.845Z,1006.94
2022-08-01T04:15:35.082Z,1007.01
2022-08-01T04:16:00.942Z,1007.01
2022-08-01T04:16:32.058Z,1007.01
2022-08-01T04:17:04.185Z,1006.94
2022-08-01T04:17:35.701Z,1007.01
2022-08-01T04:18:09.111Z,1007.01
2022-08-01T04:18:34.356Z,1007.01
2022-08-01T04:18:56.914Z,1007.01
2022-08-01T04:19:28.142Z,1007.01
2022-08-01T04:20:00.896Z,1007.11
2022-08-01T04:20:32.126Z,1007.11
2022-08-01T04:21:04.117Z,1006.94
2022-08-01T04:21:34.091Z,1007.01
2022-08-01T04:21:52.809Z,1007.01
2022-08-01T04:22:37.187Z,1007.01
2022-08-01T04:22:56.199Z,1007.01
2022-08-01T04:23:28.223Z,1007.01
2022-08-01T04:24:00.787Z,1007.31
2022-08-01T04:24:32.101Z,1007.31
2022-08-01T04:25:05.191Z,1007.21
2022-08-01T04:25:34.151Z,1006.94
2022-08-01T04:25:52.254Z,1006.94
2022-08-01T04:26:24.235Z,1006.94
2022-08-01T04:26:41.205Z,1007.11
2022-08-01T04:27:13.676Z,1007.11
2022-08-01T04:27:49.797Z,1007.21
2022-08-01T04:28:00.212Z,1007.21
2022-08-01T04:28:32.130Z,1007.21
2022-08-01T04:29:04.074Z,1007.11
2022-08-01T04:29:34.196Z,1007.01
2022-08-01T04:29:52.272Z,1007.01
2022-08-01T04:30:24.945Z,1007.01
2022-08-01T04:30:41.905Z,1006.94
2022-08-01T04:31:12.082Z,1006.94
2022-08-01T04:31:34.192Z,1007.11
2022-08-01T04:32:00.243Z,1007.11
2022-08-01T04:32:33.730Z,1007.11
2022-08-01T04:33:04.186Z,1007.01
2022-08-01T04:33:35.132Z,1007.11
2022-08-01T04:33:52.214Z,1007.11
2022-08-01T04:34:24.272Z,1007.11
2022-08-01T04:34:42.110Z,1007.11
2022-08-01T04:35:22.912Z,1007.11
2022-08-01T04:36:17.247Z,1007.01
2022-08-01T04:36:39.596Z,1007.11
2022-08-01T04:37:04.084Z,1007.11
2022-08-01T04:37:35.139Z,1007.11
2022-08-01T04:38:08.924Z,1007.11
2022-08-01T04:38:34.085Z,1007.21
2022-08-01T04:38:56.213Z,1007.21
2022-08-01T04:39:28.211Z,1007.21
2022-08-01T04:40:00.279Z,1007.21
2022-08-01T04:40:32.218Z,1007.21
2022-08-01T04:41:08.546Z,1007.31
2022-08-01T04:41:35.088Z,1007.31
2022-08-01T04:42:08.396Z,1007.31
2022-08-01T04:42:34.091Z,1007.31
2022-08-01T04:42:56.243Z,1007.31
2022-08-01T04:43:28.865Z,1007.31
2022-08-01T04:44:00.094Z,1007.11
2022-08-01T04:44:32.863Z,1007.11
2022-08-01T04:45:04.303Z,1007.21
2022-08-01T04:45:35.881Z,1007.11
2022-08-01T04:46:08.113Z,1007.11
2022-08-01T04:46:34.083Z,1007.31
2022-08-01T04:46:56.809Z,1007.31
2022-08-01T04:47:28.142Z,1007.31
2022-08-01T04:48:00.107Z,1007.21
2022-08-01T04:48:32.196Z,1007.21
2022-08-01T04:49:05.209Z,1007.31
2022-08-01T04:49:49.047Z,1007.42
2022-08-01T04:50:08.480Z,1007.42
2022-08-01T04:50:35.144Z,1007.11
2022-08-01T04:50:58.853Z,1007.11
2022-08-01T04:51:29.250Z,1007.11
2022-08-01T04:52:01.851Z,1007.11
2022-08-01T04:52:32.174Z,1007.11
2022-08-01T04:53:04.195Z,1007.31
2022-08-01T04:53:34.272Z,1007.31
2022-08-01T04:53:52.971Z,1007.31
2022-08-01T04:54:34.785Z,1007.31
2022-08-01T04:54:56.250Z,1007.31
2022-08-01T04:55:29.271Z,1007.31
2022-08-01T04:56:03.507Z,1007.42
2022-08-01T04:56:32.685Z,1007.42
2022-08-01T04:57:05.574Z,1007.31
2022-08-01T04:57:34.189Z,1007.31
2022-08-01T04:57:52.177Z,1007.31
2022-08-01T04:58:24.823Z,1007.31
2022-08-01T04:58:41.916Z,1007.31
2022-08-01T04:59:19.732Z,1007.31
2022-08-01T04:59:34.087Z,1007.42
2022-08-01T05:00:00.100Z,1007.42
2022-08-01T05:00:32.323Z,1007.42
2022-08-01T05:01:05.605Z,1007.31
2022-08-01T05:01:34.231Z,1007.42
2022-08-01T05:01:52.155Z,1007.42
2022-08-01T05:02:25.102Z,1007.42
2022-08-01T05:02:42.576Z,1007.31
2022-08-01T05:03:12.881Z,1007.31
2022-08-01T05:03:38.701Z,1007.31
2022-08-01T05:04:00.829Z,1007.31
2022-08-01T05:04:32.979Z,1007.31
2022-08-01T05:05:04.290Z,1007.21
2022-08-01T05:05:35.112Z,1007.31
2022-08-01T05:05:54.768Z,1007.31
2022-08-01T05:06:24.790Z,1007.31
2022-08-01T05:06:42.890Z,1007.31
2022-08-01T05:07:12.170Z,1007.31
2022-08-01T05:07:44.227Z,1007.21
2022-08-01T05:08:00.252Z,1007.21
2022-08-01T05:08:32.721Z,1007.21
2022-08-01T05:09:04.141Z,1007.31
2022-08-01T05:09:35.401Z,1007.52
2022-08-01T05:09:51.787Z,1007.52
2022-08-01T05:10:26.613Z,1007.52
2022-08-01T05:10:57.320Z,1007.31
2022-08-01T05:11:38.638Z,1007.42
2022-08-01T05:12:00.202Z,1007.42
2022-08-01T05:12:32.362Z,1007.42
2022-08-01T05:13:07.492Z,1007.31
2022-08-01T05:13:34.184Z,1007.31
2022-08-01T05:13:53.072Z,1007.31
2022-08-01T05:14:24.136Z,1007.31
2022-08-01T05:14:41.250Z,1007.21
2022-08-01T05:15:15.494Z,1007.21
2022-08-01T05:15:34.171Z,1007.31
2022-08-01T05:16:00.229Z,1007.31
2022-08-01T05:16:32.064Z,1007.31
2022-08-01T05:17:04.108Z,1007.31
2022-08-01T05:17:34.082Z,1007.52
2022-08-01T05:17:52.214Z,1007.52
2022-08-01T05:18:27.915Z,1007.52
2022-08-01T05:18:41.825Z,1007.52
2022-08-01T05:19:12.065Z,1007.52
2022-08-01T05:19:34.266Z,1007.31
2022-08-01T05:20:00.293Z,1007.31
2022-08-01T05:20:32.135Z,1007.31
2022-08-01T05:21:04.133Z,1007.42
2022-08-01T05:21:34.832Z,1007.52
2022-08-01T05:21:52.439Z,1007.52
2022-08-01T05:22:24.784Z,1007.52
2022-08-01T05:22:41.888Z,1007.42
2022-08-01T05:23:30.990Z,1007.42
2022-08-01T05:23:44.103Z,1007.42
2022-08-01T05:24:16.191Z,1007.42
2022-08-01T05:24:34.200Z,1007.31
2022-08-01T05:25:04.979Z,1007.31
2022-08-01T05:25:57.476Z,1007.42
2022-08-01T05:26:08.225Z,1007.42
2022-08-01T05:26:36.193Z,1007.21
2022-08-01T05:26:56.188Z,1007.21
2022-08-01T05:27:28.140Z,1007.21
2022-08-01T05:28:00.865Z,1007.42
2022-08-01T05:28:32.177Z,1007.42
2022-08-01T05:29:04.145Z,1007.31
2022-08-01T05:29:34.136Z,1007.52
2022-08-01T05:29:52.057Z,1007.52
2022-08-01T05:30:25.109Z,1007.52
2022-08-01T05:30:42.703Z,1007.62
2022-08-01T05:31:12.185Z,1007.62
2022-08-01T05:31:34.695Z,1007.52
2022-08-01T05:32:00.057Z,1007.52
2022-08-01T05:32:32.143Z,1007.52
2022-08-01T05:33:04.967Z,1007.52
2022-08-01T05:33:34.316Z,1007.31
2022-08-01T05:33:52.839Z,1007.31
2022-08-01T05:34:25.179Z,1007.31
2022-08-01T05:34:42.380Z,1007.42
2022-08-01T05:35:12.215Z,1007.42
2022-08-01T05:35:48.108Z,1007.21
2022-08-01T05:36:16.967Z,1007.21
2022-08-01T05:36:34.604Z,1007.52
2022-08-01T05:37:04.205Z,1007.52
2022-08-01T05:37:37.017Z,1007.42
2022-08-01T05:38:08.102Z,1007.42
2022-08-01T05:38:35.602Z,1007.42
2022-08-01T05:38:56.222Z,1007.42
2022-08-01T05:39:28.127Z,1007.42
2022-08-01T05:40:01.942Z,1007.42
2022-08-01T05:40:32.249Z,1007.42